sensor_id;sensor_type;location;lat;lon;timestamp;P1;durP1;ratioP1;P2;durP2;ratioP2
1887;SDS011;944;51.574;6.980;2023-04-08T08:00:09;36.63;;;25.33;;
1887;SDS011;944;51.574;6.980;2023-04-08T08:02:45;31.40;;;22.70;;
1887;SDS011;944;51.574;6.980;2023-04-08T08:05:18;30.90;;;22.67;;
1887;SDS011;944;51.574;6.980;2023-04-08T08:15:38;28.53;;;19.50;;
1887;SDS011;944;51.574;6.980;2023-04-08T08:18:08;26.40;;;17.70;;
1887;SDS011;944;51.574;6.980;2023-04-08T08:21:01;18.20;;;14.27;;
1887;SDS011;944;51.574;6.980;2023-04-08T08:23:35;19.83;;;14.40;;
1887;SDS011;944;51.574;6.980;2023-04-08T08:29:58;19.37;;;13.80;;
1887;SDS011;944;51.574;6.980;2023-04-08T08:32:47;21.40;;;14.30;;
1887;SDS011;944;51.574;6.980;2023-04-08T08:35:19;20.50;;;13.97;;
1887;SDS011;944;51.574;6.980;2023-04-08T08:37:54;20.50;;;14.30;;
1887;SDS011;944;51.574;6.980;2023-04-08T08:44:12;19.73;;;14.60;;
1887;SDS011;944;51.574;6.980;2023-04-08T08:46:43;20.53;;;14.80;;
1887;SDS011;944;51.574;6.980;2023-04-08T08:49:17;24.87;;;15.20;;
1887;SDS011;944;51.574;6.980;2023-04-08T08:51:45;20.73;;;14.13;;
1887;SDS011;944;51.574;6.980;2023-04-08T08:54:14;22.63;;;14.63;;
1887;SDS011;944;51.574;6.980;2023-04-08T08:56:46;20.53;;;13.60;;
1887;SDS011;944;51.574;6.980;2023-04-08T08:59:17;20.40;;;14.33;;
1887;SDS011;944;51.574;6.980;2023-04-08T09:01:44;19.67;;;14.20;;
1887;SDS011;944;51.574;6.980;2023-04-08T09:04:12;21.63;;;13.77;;
1887;SDS011;944;51.574;6.980;2023-04-08T09:06:43;20.47;;;14.37;;
1887;SDS011;944;51.574;6.980;2023-04-08T09:09:49;18.10;;;12.93;;
1887;SDS011;944;51.574;6.980;2023-04-08T09:12:16;18.90;;;13.33;;
1887;SDS011;944;51.574;6.980;2023-04-08T09:14:43;16.20;;;12.40;;
1887;SDS011;944;51.574;6.980;2023-04-08T09:17:10;16.60;;;11.80;;
1887;SDS011;944;51.574;6.980;2023-04-08T09:19:38;15.70;;;10.27;;
1887;SDS011;944;51.574;6.980;2023-04-08T09:22:06;11.07;;;9.40;;
1887;SDS011;944;51.574;6.980;2023-04-08T09:24:36;12.33;;;8.80;;
1887;SDS011;944;51.574;6.980;2023-04-08T09:27:08;13.70;;;10.07;;
1887;SDS011;944;51.574;6.980;2023-04-08T09:29:35;14.37;;;10.50;;
1887;SDS011;944;51.574;6.980;2023-04-08T09:32:02;21.93;;;9.63;;
1887;SDS011;944;51.574;6.980;2023-04-08T09:34:31;13.20;;;9.70;;
1887;SDS011;944;51.574;6.980;2023-04-08T09:37:02;11.80;;;9.27;;
1887;SDS011;944;51.574;6.980;2023-04-08T09:39:31;12.87;;;9.70;;
1887;SDS011;944;51.574;6.980;2023-04-08T09:42:01;12.93;;;10.30;;
1887;SDS011;944;51.574;6.980;2023-04-08T09:44:33;12.60;;;9.87;;
1887;SDS011;944;51.574;6.980;2023-04-08T09:47:05;12.33;;;9.73;;
1887;SDS011;944;51.574;6.980;2023-04-08T09:49:48;13.23;;;9.87;;
1887;SDS011;944;51.574;6.980;2023-04-08T09:52:34;14.93;;;9.60;;
1887;SDS011;944;51.574;6.980;2023-04-08T09:55:16;11.00;;;9.20;;
1887;SDS011;944;51.574;6.980;2023-04-08T09:57:50;21.00;;;10.50;;
1887;SDS011;944;51.574;6.980;2023-04-08T10:00:29;11.50;;;8.73;;
1887;SDS011;944;51.574;6.980;2023-04-08T10:32:56;15.17;;;9.57;;
1887;SDS011;944;51.574;6.980;2023-04-08T10:36:07;14.07;;;9.57;;
1887;SDS011;944;51.574;6.980;2023-04-08T10:47:15;12.67;;;9.63;;
1887;SDS011;944;51.574;6.980;2023-04-08T10:50:10;13.63;;;10.10;;
1887;SDS011;944;51.574;6.980;2023-04-08T10:52:53;12.63;;;9.87;;
1887;SDS011;944;51.574;6.980;2023-04-08T10:56:08;13.33;;;8.90;;
1887;SDS011;944;51.574;6.980;2023-04-08T10:58:50;9.40;;;6.60;;
1887;SDS011;944;51.574;6.980;2023-04-08T11:09:27;7.63;;;6.10;;
